VYYY/RGN METAR and TAF weather

Enter ICAO airport designator
Station Type Date Time Source
VYYY METAR 2019/06/26 18:00 UTC NOAA

VYYY 261800Z 21004KT 7000 SCT018 FEW020CB SCT110 26/25 Q1006


Station Type Date Time Source
VYYY Decoded METAR 2019/06/26 18:00 UTC NOAA

Yangon, Myanmar (VYYY) 16-46N 096-10E 15M
Jun 26, 2019 - 02:00 PM EDT / 2019.06.26 1800 UTC
Wind: from the SSW (210 degrees) at 5 MPH (4 KT):0
Visibility: 4 mile(s):0
Sky conditions: partly cloudy
Weather: Cumulonimbus clouds observed
Temperature: 78 F (26 C)
Dew Point: 77 F (25 C)
Relative Humidity: 94%
Pressure (altimeter): 29.71 in. Hg (1006 hPa)
ob: VYYY 261800Z 21004KT 7000 SCT018 FEW020CB SCT110 26/25 Q1006
cycle: 18

Station Type Date Time Source
VYYY TAF 2019/06/26 18:39 UTC NOAA

TAF TAF VYYY 261700Z 2618/2718 22006KT 6000 BKN014 FEW020CB BKN100
BECMGB 2618/2621 20008KT 190V260 6000 SCT016 FEW020CB BKN100
TEMPO 2700/2705 17006KT 5000 -RA BKN014 FEW018CB BKN100

Example: see airport list